Bethel Park, PA (15102)

5:16 AM EST on February 13, 2016 (GMT -0500)
eastview | | Change Station
CLOSE
Current Station
Personal Weather Station
Location: Bethel Park, PA
Elevation: 1086 ft
Nearby Weather Stations

Elev 1086 ft 40.33 °N, 80.04 °W | Updated 11 seconds ago

Overcast
Overcast
10.0 °F
Feels Like 10 °F
N
0.0
Wind Variable Wind from NNE
Gusts 3.0 mph

Today
High -- | Low -- °F
--% Chance of Precip.
Yesterday
High -- | Low -- °F
Precip. -- in
Pressure 30.22 in
Visibility 10.0 miles
Clouds Mostly Cloudy 3200 ft
Overcast 4100 ft
Windchill 10 °F
Dew Point 4 °F
Humidity 77%
Rainfall 0.00 in
Snow Depth Not available.
7:16 AM 5:52 PM
Waxing Crescent, 29% visible
METAR KAGC 130953Z 32011G24KT 280V340 10SM BKN032 OVC041 M12/M18 A3014 RMK AO2 PK WND 32027/0915 SLP234 T11171183
Pressure 30.22 in
Visibility 10.0 miles
Clouds Mostly Cloudy 3200 ft
Overcast 4100 ft
Windchill 10 °F
Dew Point 4 °F
Humidity 77%
Rainfall 0.00 in
Snow Depth Not available.
7:16 AM 5:52 PM
Waxing Crescent, 29% visible
METAR KAGC 130953Z 32011G24KT 280V340 10SM BKN032 OVC041 M12/M18 A3014 RMK AO2 PK WND 32027/0915 SLP234 T11171183

10-Day Weather Forecast

Almanac

Astronomy

Feb. 13, 2016 Rise Set
Actual Time
Civil Twilight
Nautical Twilight
Astronomical Twilight
Moon
Length of Visible Light
Length of Day
Tomorrow will be .
, % of the Moon is Illuminated

Today's Extremes

State Highs State Lows

Community

WunderPhotos

Upload Photos

1,892,536 photos uploaded!

WunderBlog® & News

Nearby

Air Quality

  Air Quality AQ Index Pollutant
Not available.

Snow Depth

Station Depth Elevation

Earthquake Activity

City Distance Mag. Time & Date
Minimum magnitude displayed is 2.5.

Coastal Water Temperatures

Place Temperature

Stations

Nearby Weather Stations

Station Location Temp. Windchill Dew Point Humidity Wind Precip. Elev Updated Type
                   

Watches & Warnings

Wind Chill Advisory
Issued: 4:56 AM EST Feb. 13, 2016 – National Weather Service

... Wind Chill Advisory remains in effect until 9 am EST Sunday...

* wind chill... as low as 15 below due to temperatures 4 below to
12 above zero... and winds west 10 to 20 mph with gusts up to
25 mph.

* Impacts... frost bite and hypothermia are possible if
precautions are not taken.